Time;durP1;ratioP1;P1;durP2;ratioP2;P2;SDS_P1;SDS_P2;PMS_P1;PMS_P2;Temp;Humidity;BMP_temperature;BMP_pressure;BME280_temperature;BME280_humidity;BME280_pressure;Samples;Min_cycle;Max_cycle;Signal;HPM_P1;HPM_P2
2022/04/01 00:01:59;;;;;;;6.38;1.20;;;-4.00;91.00;;;;;;4972713;28;20034;-65
2022/04/01 00:04:24;;;;;;;7.30;1.25;;;-4.00;91.00;;;;;;4972898;28;20039;-65
2022/04/01 00:06:50;;;;;;;7.63;1.30;;;-4.00;91.00;;;;;;4973517;28;20167;-65
2022/04/01 00:09:16;;;;;;;8.60;1.50;;;-4.00;91.00;;;;;;4976749;28;20367;-65
2022/04/01 00:11:41;;;;;;;3.72;1.25;;;-4.10;91.50;;;;;;4976710;28;20034;-65
2022/04/01 00:14:08;;;;;;;4.28;1.35;;;-4.10;91.80;;;;;;4976456;28;20117;-65
2022/04/01 00:16:34;;;;;;;3.20;1.30;;;-4.10;91.80;;;;;;4976356;28;20462;-65
2022/04/01 00:19:00;;;;;;;3.13;1.38;;;-4.20;92.20;;;;;;4976721;28;20038;-65
2022/04/01 00:21:26;;;;;;;6.38;1.52;;;-4.20;92.20;;;;;;4976542;28;20386;-65
2022/04/01 00:23:51;;;;;;;5.18;1.80;;;-4.20;92.40;;;;;;4976366;28;20042;-65
2022/04/01 00:26:17;;;;;;;1.42;1.23;;;-4.20;92.80;;;;;;4976738;28;20031;-65
2022/04/01 00:28:43;;;;;;;5.05;1.60;;;-4.20;93.10;;;;;;4976282;28;20046;-65
2022/04/01 00:31:09;;;;;;;4.57;1.50;;;-4.30;93.60;;;;;;4976420;28;20102;-64
2022/04/01 00:33:35;;;;;;;1.67;1.10;;;-4.30;94.00;;;;;;4975115;28;20058;-64
2022/04/01 00:36:02;;;;;;;6.03;1.40;;;-4.30;94.10;;;;;;4976134;28;20490;-64
2022/04/01 00:38:28;;;;;;;3.70;1.90;;;-4.30;94.30;;;;;;4975807;28;20502;-64
2022/04/01 00:40:54;;;;;;;4.38;1.35;;;-4.20;94.30;;;;;;4975889;28;20022;-64
2022/04/01 00:43:31;;;;;;;14.15;1.80;;;-4.20;94.70;;;;;;4976252;28;20050;-64
2022/04/01 00:45:59;;;;;;;13.98;1.45;;;-4.20;95.10;;;;;;4975853;28;20026;-64
2022/04/01 00:48:26;;;;;;;7.47;1.80;;;-4.20;95.30;;;;;;4975842;28;20089;-64
2022/04/01 00:50:53;;;;;;;7.55;1.42;;;-4.20;95.80;;;;;;4975692;28;20022;-64
2022/04/01 00:53:20;;;;;;;6.13;1.35;;;-4.20;95.60;;;;;;4975769;28;20038;-64
2022/04/01 00:55:47;;;;;;;5.40;2.55;;;-4.20;95.40;;;;;;4975597;28;20031;-64
2022/04/01 00:58:13;;;;;;;2.25;1.00;;;-4.20;95.10;;;;;;4975817;28;20094;-65
2022/04/01 01:00:39;;;;;;;1.60;1.08;;;-4.20;95.20;;;;;;4975862;28;20386;-64
2022/04/01 01:03:05;;;;;;;3.88;1.13;;;-4.10;95.00;;;;;;4975887;28;20109;-64
2022/04/01 01:05:31;;;;;;;2.90;1.17;;;-4.10;94.90;;;;;;4975783;28;20081;-64
2022/04/01 01:07:58;;;;;;;2.30;1.20;;;-4.00;95.10;;;;;;4975735;28;20108;-65
2022/04/01 01:10:24;;;;;;;1.85;1.27;;;-4.00;94.70;;;;;;4975771;28;20027;-65
2022/04/01 01:12:51;;;;;;;3.08;1.10;;;-4.00;94.80;;;;;;4975387;28;20046;-65
2022/04/01 01:15:18;;;;;;;3.75;1.25;;;-4.00;95.00;;;;;;4975489;28;20023;-65
2022/04/01 01:17:47;;;;;;;1.60;1.20;;;-4.10;95.10;;;;;;4974780;28;20029;-65
2022/04/01 01:20:17;;;;;;;1.10;1.00;;;-4.10;95.10;;;;;;4974537;28;20067;-65
2022/04/01 01:22:44;;;;;;;5.30;1.20;;;-4.00;95.10;;;;;;4975115;28;20498;-65
2022/04/01 01:25:12;;;;;;;9.55;1.30;;;-4.00;95.00;;;;;;4975280;28;20042;-65
2022/04/01 01:27:38;;;;;;;4.45;1.08;;;-4.00;95.20;;;;;;4975065;28;20038;-66
2022/04/01 01:30:07;;;;;;;2.38;0.93;;;-4.00;95.50;;;;;;4975241;28;20034;-65
2022/04/01 01:32:34;;;;;;;2.47;1.00;;;-4.00;95.00;;;;;;4975413;28;20039;-65
2022/04/01 01:35:01;;;;;;;3.42;1.33;;;-4.00;95.00;;;;;;4975236;28;20027;-64
2022/04/01 01:37:26;;;;;;;4.97;0.98;;;-4.00;94.90;;;;;;4975037;28;20031;-65
2022/04/01 01:39:52;;;;;;;5.25;1.30;;;-4.00;95.00;;;;;;4975209;28;20101;-64
2022/04/01 01:42:18;;;;;;;4.10;1.10;;;-4.00;95.00;;;;;;4973735;28;20427;-64
2022/04/01 01:44:45;;;;;;;1.30;1.10;;;-4.00;95.00;;;;;;4973532;28;20431;-66
2022/04/01 01:47:11;;;;;;;2.55;1.00;;;-4.00;95.30;;;;;;4974801;28;20029;-65
2022/04/01 01:49:37;;;;;;;1.20;1.00;;;-4.00;95.40;;;;;;4974720;28;20098;-67
2022/04/01 01:54:52;;;;;;;5.85;1.30;;;-4.00;95.40;;;;;;4974629;28;20026;-66
2022/04/01 01:57:20;;;;;;;1.63;1.15;;;-4.00;95.60;;;;;;4974565;28;20026;-67
2022/04/01 01:59:47;;;;;;;1.95;1.17;;;-3.90;95.70;;;;;;4974559;28;20077;-65
2022/04/01 02:02:13;;;;;;;6.75;1.20;;;-3.90;95.60;;;;;;4974681;28;20033;-67
2022/04/01 02:04:40;;;;;;;3.25;1.10;;;-3.90;95.60;;;;;;4962484;28;20109;-65
2022/04/01 02:07:07;;;;;;;1.73;1.10;;;-3.90;95.70;;;;;;4955382;28;20027;-67
2022/04/01 02:09:33;;;;;;;4.43;1.08;;;-3.90;95.90;;;;;;4955321;28;20055;-65
2022/04/01 02:11:59;;;;;;;7.13;1.27;;;-3.80;96.00;;;;;;4954993;28;20077;-66
2022/04/01 02:14:26;;;;;;;1.25;0.85;;;-3.90;95.80;;;;;;4955011;28;20023;-65
2022/04/01 02:16:52;;;;;;;1.77;0.80;;;-3.90;95.80;;;;;;4954949;28;20023;-64
2022/04/01 02:19:21;;;;;;;5.70;1.20;;;-4.00;95.40;;;;;;4954950;28;20058;-64
2022/04/01 02:21:48;;;;;;;1.20;1.10;;;-4.10;95.10;;;;;;4955047;28;20034;-67
2022/04/01 02:24:15;;;;;;;1.38;1.00;;;-4.10;95.30;;;;;;4954887;28;20026;-65
2022/04/01 02:55:45;;;;;;;8.95;1.30;;;-4.10;93.70;;;;;;4953640;28;20062;-63
2022/04/01 02:58:12;;;;;;;2.67;1.05;;;-4.10;93.40;;;;;;4954153;28;20027;-65
2022/04/01 03:00:38;;;;;;;1.75;0.95;;;-4.10;93.20;;;;;;4954096;28;20048;-65
2022/04/01 03:03:06;;;;;;;4.78;1.10;;;-4.20;93.30;;;;;;4954186;28;20515;-64
2022/04/01 03:36:36;;;;;;;1.15;1.05;;;-4.20;94.30;;;;;;6068761;23;20006;-76
2022/04/01 03:39:03;;;;;;;5.35;0.90;;;-4.20;94.40;;;;;;4968978;28;20047;-76
2022/04/01 03:41:30;;;;;;;1.75;1.13;;;-4.30;94.10;;;;;;4972941;28;20030;-72
2022/04/01 03:43:56;;;;;;;2.30;1.10;;;-4.40;94.10;;;;;;4977102;28;20085;-70
2022/04/01 03:46:24;;;;;;;1.33;1.00;;;-4.40;94.30;;;;;;4976868;28;20098;-72
2022/04/01 03:48:52;;;;;;;4.70;1.48;;;-4.30;94.50;;;;;;4976924;28;20041;-70
2022/04/01 03:51:21;;;;;;;3.25;1.20;;;-4.30;94.40;;;;;;4976839;28;20389;-70
2022/04/01 03:54:02;;;;;;;7.80;1.25;;;-4.20;94.60;;;;;;4976905;28;20038;-70
2022/04/01 03:56:35;;;;;;;4.65;1.50;;;-4.20;94.30;;;;;;4976892;28;20041;-71
2022/04/01 03:59:04;;;;;;;2.10;1.27;;;-4.20;94.30;;;;;;4959410;28;20133;-71
2022/04/01 04:01:30;;;;;;;3.33;1.08;;;-4.20;94.20;;;;;;4959337;28;20158;-71
2022/04/01 04:03:57;;;;;;;1.70;1.20;;;-4.10;94.20;;;;;;4976779;28;20034;-71
2022/04/01 04:06:24;;;;;;;2.90;1.10;;;-4.10;94.20;;;;;;4976677;28;20026;-71
2022/04/01 04:08:57;;;;;;;1.55;0.80;;;-4.10;94.10;;;;;;4959362;28;20504;-71
2022/04/01 04:11:28;;;;;;;2.63;1.05;;;-4.20;94.20;;;;;;4976554;28;20492;-70
2022/04/01 04:13:55;;;;;;;5.25;1.10;;;-4.30;94.50;;;;;;4976799;28;20031;-70
2022/04/01 04:16:29;;;;;;;5.28;1.13;;;-4.40;94.70;;;;;;4976482;28;20019;-69
2022/04/01 04:19:18;;;;;;;2.42;1.30;;;-4.40;95.30;;;;;;4976432;28;20034;-69
2022/04/01 04:22:00;;;;;;;4.15;1.20;;;-4.30;95.40;;;;;;4976544;28;20529;-69
2022/04/01 04:24:36;;;;;;;6.45;1.30;;;-4.20;95.20;;;;;;4976198;28;20045;-72
2022/04/01 04:27:12;;;;;;;1.83;0.90;;;-4.20;95.20;;;;;;4976354;28;20036;-71
2022/04/01 04:29:48;;;;;;;1.88;1.10;;;-4.30;94.70;;;;;;4976341;28;20023;-69
2022/04/01 04:32:42;;;;;;;2.30;1.00;;;-4.40;95.20;;;;;;4976419;28;20081;-64
2022/04/01 04:35:10;;;;;;;5.47;1.10;;;-4.30;95.30;;;;;;4976245;28;20027;-67
2022/04/01 04:37:43;;;;;;;3.53;1.13;;;-4.30;96.00;;;;;;4975585;28;20514;-66
2022/04/01 04:40:12;;;;;;;3.00;1.10;;;-4.10;99.90;;;;;;4976098;28;20023;-67
2022/04/01 04:42:44;;;;;;;2.88;1.02;;;-3.80;99.90;;;;;;4975768;28;20035;-68
2022/04/01 04:45:18;;;;;;;1.98;1.00;;;-3.50;99.90;;;;;;4975566;28;20031;-79
2022/04/01 04:47:45;;;;;;;9.35;1.80;;;-3.50;99.90;;;;;;4969779;28;20026;-81
2022/04/01 04:50:11;;;;;;;4.43;1.30;;;-3.60;98.90;;;;;;4972481;28;20027;-75
2022/04/01 04:52:39;;;;;;;4.03;1.10;;;-3.60;99.90;;;;;;4972309;28;20019;-78
2022/04/01 04:55:11;;;;;;;2.55;1.20;;;-3.70;99.10;;;;;;4975024;28;20109;-79
2022/04/01 04:57:38;;;;;;;5.97;1.15;;;-3.80;99.30;;;;;;4974971;28;20042;-76
2022/04/01 05:00:05;;;;;;;1.75;1.13;;;-3.70;99.90;;;;;;4967866;28;20414;-75
2022/04/01 05:03:12;;;;;;;1.45;1.00;;;-3.70;98.60;;;;;;4972404;28;20026;-76
2022/04/01 05:05:47;;;;;;;2.03;0.98;;;-3.60;97.90;;;;;;4973134;28;20023;-71
2022/04/01 05:08:34;;;;;;;2.85;1.20;;;-3.60;98.40;;;;;;4973822;28;20019;-72
2022/04/01 05:11:36;;;;;;;2.30;1.25;;;-3.60;97.50;;;;;;4958398;28;20682;-79
2022/04/01 05:14:18;;;;;;;6.15;1.08;;;-3.60;96.80;;;;;;4964881;28;20038;-74
2022/04/01 05:16:59;;;;;;;4.18;1.25;;;-3.60;96.90;;;;;;4962989;28;20633;-78
2022/04/01 05:19:27;;;;;;;1.20;1.10;;;-3.60;96.30;;;;;;4972024;28;20041;-72
2022/04/01 05:22:06;;;;;;;3.55;1.13;;;-3.60;96.00;;;;;;4975655;28;20107;-72
2022/04/01 05:24:42;;;;;;;7.22;1.70;;;-3.60;95.70;;;;;;4975565;28;20383;-72
2022/04/01 05:27:23;;;;;;;5.80;1.15;;;-3.30;99.90;;;;;;4975295;28;20023;-72
2022/04/01 05:29:56;;;;;;;;;;;-3.10;98.70;;;;;;4964032;28;20086;-72
2022/04/01 05:32:25;;;;;;;2.00;1.27;;;-3.00;96.10;;;;;;4972152;28;19953;-72
2022/04/01 05:34:51;;;;;;;4.70;1.02;;;-2.90;95.00;;;;;;4975195;28;20106;-72
2022/04/01 05:37:17;;;;;;;3.15;1.10;;;-2.90;94.10;;;;;;4973533;28;20046;-72
2022/04/01 05:39:48;;;;;;;3.45;1.10;;;-2.80;93.60;;;;;;4973299;28;20410;-69
2022/04/01 05:42:15;;;;;;;6.55;1.05;;;-2.80;93.00;;;;;;4974931;28;20413;-69
2022/04/01 05:44:42;;;;;;;3.45;1.20;;;-2.70;92.80;;;;;;4975118;28;20093;-69
2022/04/01 05:47:10;;;;;;;6.32;1.33;;;-2.60;92.80;;;;;;4974848;28;20023;-69
2022/04/01 05:49:45;;;;;;;4.68;1.05;;;-2.60;92.50;;;;;;4974640;28;20509;-69
2022/04/01 05:52:12;;;;;;;1.40;1.05;;;-2.50;91.80;;;;;;4974903;28;20026;-69
2022/04/01 05:54:43;;;;;;;3.75;1.10;;;-2.30;91.30;;;;;;4974874;28;20037;-69
2022/04/01 05:57:10;;;;;;;12.43;1.40;;;-2.20;90.30;;;;;;4974593;28;20469;-69
2022/04/01 05:59:38;;;;;;;30.90;1.63;;;-2.10;90.20;;;;;;4974647;28;20047;-69
2022/04/01 06:02:54;;;;;;;7.00;0.93;;;-2.00;89.80;;;;;;4974816;28;20051;-69
2022/04/01 06:05:56;;;;;;;7.13;1.30;;;-1.30;97.80;;;;;;4973999;28;20038;-68
2022/04/01 06:08:58;;;;;;;3.80;1.13;;;-0.40;99.90;;;;;;4974394;28;20031;-71
2022/04/01 06:11:44;;;;;;;1.83;0.80;;;-0.40;89.90;;;;;;4974476;28;20030;-68
2022/04/01 06:14:44;;;;;;;3.20;0.90;;;-0.60;84.10;;;;;;4974548;28;20411;-68
2022/04/01 06:17:26;;;;;;;2.20;1.30;;;-0.80;82.10;;;;;;4974334;28;20022;-68
2022/04/01 06:19:55;;;;;;;7.82;1.42;;;-0.90;82.10;;;;;;4974157;28;20134;-70
2022/04/01 06:22:26;;;;;;;2.63;1.20;;;-1.00;82.20;;;;;;4974456;28;20026;-67
2022/04/01 06:25:12;;;;;;;7.35;1.35;;;-0.80;82.30;;;;;;4974182;28;20026;-67
2022/04/01 06:27:39;;;;;;;2.80;1.10;;;-0.70;82.20;;;;;;4974293;28;20077;-66
2022/04/01 06:30:13;;;;;;;4.93;1.20;;;-0.50;82.20;;;;;;4974300;28;20481;-66
2022/04/01 06:32:41;;;;;;;3.80;1.30;;;-0.60;80.40;;;;;;4974154;28;20094;-67
2022/04/01 06:35:11;;;;;;;10.73;1.85;;;-0.50;80.30;;;;;;4973919;28;20027;-67
2022/04/01 06:37:42;;;;;;;4.18;1.38;;;-0.20;80.10;;;;;;4973498;28;20451;-68
2022/04/01 06:40:12;;;;;;;4.03;1.30;;;-0.10;78.90;;;;;;4974165;28;20041;-66
2022/04/01 06:42:40;;;;;;;1.80;1.00;;;0.10;79.00;;;;;;4973657;28;20066;-69
2022/04/01 06:45:08;;;;;;;3.85;1.30;;;0.40;78.60;;;;;;4974096;28;20266;-69
2022/04/01 06:47:35;;;;;;;4.13;1.20;;;0.60;76.70;;;;;;4973625;28;20027;-69
2022/04/01 06:50:02;;;;;;;1.48;1.20;;;0.80;76.00;;;;;;4962042;28;20039;-69
2022/04/01 06:52:28;;;;;;;4.32;1.20;;;0.90;74.80;;;;;;4958052;28;20038;-69
2022/04/01 06:54:54;;;;;;;7.05;0.98;;;1.10;73.90;;;;;;4972138;28;20038;-68
2022/04/01 06:57:20;;;;;;;1.67;0.95;;;1.40;99.90;;;;;;4964417;28;20098;-66
2022/04/01 06:59:46;;;;;;;5.15;1.10;;;1.90;93.00;;;;;;4967493;28;20041;-64
2022/04/01 07:02:12;;;;;;;2.33;1.10;;;2.10;88.10;;;;;;4957090;28;20038;-67
2022/04/01 07:04:38;;;;;;;0.98;0.77;;;2.30;79.20;;;;;;4955963;28;20027;-68
2022/04/01 07:07:04;;;;;;;5.18;1.00;;;2.30;71.90;;;;;;4966370;28;20110;-68
2022/04/01 07:09:30;;;;;;;5.97;1.00;;;2.20;71.20;;;;;;4962639;28;20030;-66
2022/04/01 07:11:59;;;;;;;3.03;1.08;;;2.30;70.50;;;;;;4969350;28;20033;-67
2022/04/01 07:14:28;;;;;;;4.82;0.95;;;2.30;70.10;;;;;;4971580;28;20029;-64
2022/04/01 07:16:55;;;;;;;7.70;1.25;;;2.30;69.20;;;;;;4953339;28;20031;-65
2022/04/01 07:19:21;;;;;;;4.82;1.10;;;2.40;68.70;;;;;;4961692;28;20027;-65
2022/04/01 07:21:47;;;;;;;4.70;1.30;;;2.20;68.10;;;;;;4960635;28;20027;-64
2022/04/01 07:24:12;;;;;;;5.25;1.13;;;2.10;68.20;;;;;;4968611;28;20695;-64
2022/04/01 07:26:38;;;;;;;4.25;1.08;;;2.00;68.20;;;;;;4956338;28;20099;-64
2022/04/01 07:29:04;;;;;;;2.38;0.90;;;2.10;68.00;;;;;;4971913;28;20436;-67
2022/04/01 07:34:21;;;;;;;4.05;1.00;;;1.90;67.80;;;;;;4968889;28;20124;-73
2022/04/01 07:36:47;;;;;;;16.95;1.80;;;1.90;67.50;;;;;;4943188;28;20450;-71
2022/04/01 07:39:13;;;;;;;9.52;2.13;;;2.60;99.90;;;;;;4964921;28;20043;-68
2022/04/01 07:41:39;;;;;;;4.13;1.77;;;4.10;99.90;;;;;;4963553;28;20030;-67
2022/04/01 07:44:05;;;;;;;13.07;1.67;;;4.60;95.60;;;;;;4958175;28;20038;-67
2022/04/01 07:46:31;;;;;;;3.08;1.20;;;4.30;76.90;;;;;;4954711;28;20423;-67
2022/04/01 07:48:56;;;;;;;3.35;1.13;;;3.80;71.90;;;;;;4967088;28;20066;-67
2022/04/01 07:51:22;;;;;;;20.95;1.83;;;3.30;67.70;;;;;;4961680;28;20130;-68
2022/04/01 07:53:48;;;;;;;13.20;1.58;;;3.00;68.50;;;;;;4960602;28;20497;-67
2022/04/01 07:56:13;;;;;;;8.25;1.67;;;2.80;69.50;;;;;;4952723;29;20031;-67
2022/04/01 07:58:39;;;;;;;6.15;1.58;;;2.70;70.80;;;;;;4953359;29;20494;-67
2022/04/01 08:01:05;;;;;;;7.63;1.52;;;2.60;70.10;;;;;;4953570;29;20031;-67
2022/04/01 08:03:30;;;;;;;6.65;1.98;;;2.60;71.30;;;;;;4953164;28;20035;-67
2022/04/01 08:05:58;;;;;;;16.88;1.70;;;2.60;71.00;;;;;;4953089;29;20027;-67
2022/04/01 08:08:24;;;;;;;6.05;1.83;;;2.50;68.50;;;;;;4953416;28;20051;-67
2022/04/01 08:10:51;;;;;;;11.30;1.52;;;2.50;71.30;;;;;;4953627;29;20106;-67
2022/04/01 08:13:17;;;;;;;5.32;1.25;;;2.40;69.30;;;;;;4953568;28;20027;-67
2022/04/01 08:15:43;;;;;;;6.43;1.30;;;2.30;70.00;;;;;;4953448;28;20035;-67
2022/04/01 08:18:09;;;;;;;6.55;1.35;;;2.30;69.30;;;;;;4953675;28;20097;-67
2022/04/01 08:20:35;;;;;;;5.40;1.40;;;2.30;70.30;;;;;;4953381;29;20475;-68
2022/04/01 08:23:02;;;;;;;6.40;1.77;;;2.30;69.60;;;;;;4953556;28;20175;-68
2022/04/01 08:25:28;;;;;;;11.27;1.30;;;2.40;69.20;;;;;;4953260;28;20360;-67
2022/04/01 08:27:53;;;;;;;7.32;1.45;;;2.40;69.20;;;;;;4953933;28;20038;-67
2022/04/01 08:30:19;;;;;;;1.80;0.90;;;2.50;69.70;;;;;;4956898;28;20031;-65
2022/04/01 08:32:45;;;;;;;3.08;1.00;;;3.60;99.90;;;;;;4956917;28;20109;-66
2022/04/01 08:35:11;;;;;;;21.73;1.75;;;7.10;99.90;;;;;;4956838;28;20019;-67
2022/04/01 08:37:38;;;;;;;16.02;1.50;;;7.80;78.50;;;;;;4956276;28;20514;-69
2022/04/01 08:40:05;;;;;;;2.85;1.40;;;6.30;64.90;;;;;;4956772;28;20033;-66
2022/04/01 08:42:32;;;;;;;19.60;2.20;;;5.10;62.10;;;;;;4956867;28;20364;-67
2022/04/01 08:44:58;;;;;;;3.70;1.30;;;4.50;63.90;;;;;;4956713;28;20029;-67
2022/04/01 08:47:24;;;;;;;5.70;1.33;;;4.30;66.10;;;;;;4956556;28;20082;-67
2022/04/01 08:49:52;;;;;;;11.07;1.63;;;4.00;65.40;;;;;;4956694;28;20024;-68
2022/04/01 08:52:18;;;;;;;5.25;1.77;;;3.60;65.10;;;;;;4956783;28;20027;-67
2022/04/01 08:54:44;;;;;;;5.05;1.73;;;3.70;76.30;;;;;;4956323;29;20378;-68
2022/04/01 08:57:10;;;;;;;6.60;1.30;;;3.60;66.50;;;;;;4963556;28;20038;-69
2022/04/01 08:59:37;;;;;;;2.42;1.38;;;3.50;65.40;;;;;;4966074;28;20038;-68
2022/04/01 09:02:10;;;;;;;3.47;1.13;;;3.30;64.20;;;;;;4975675;28;20523;-66
2022/04/01 09:04:37;;;;;;;4.97;1.35;;;3.20;65.80;;;;;;4975496;28;20027;-66
2022/04/01 09:07:11;;;;;;;8.55;1.60;;;3.20;66.50;;;;;;4975576;28;20023;-66
2022/04/01 09:09:37;;;;;;;7.00;1.70;;;3.10;65.40;;;;;;4975400;28;20030;-66
2022/04/01 09:12:23;;;;;;;26.70;1.77;;;3.10;64.50;;;;;;4975762;28;20031;-66
2022/04/01 09:14:54;;;;;;;9.00;2.10;;;3.10;65.20;;;;;;4975693;28;20027;-66
2022/04/01 09:17:20;;;;;;;3.78;1.10;;;3.00;62.80;;;;;;4975172;28;20588;-66
2022/04/01 09:19:46;;;;;;;6.70;1.30;;;2.90;63.60;;;;;;4975086;28;20045;-68
2022/04/01 09:22:25;;;;;;;4.68;1.40;;;3.00;65.00;;;;;;4975361;28;20019;-67
2022/04/01 09:24:53;;;;;;;8.50;1.30;;;3.10;65.00;;;;;;4975284;28;20485;-66
2022/04/01 09:27:19;;;;;;;20.10;2.10;;;3.10;63.10;;;;;;4975371;28;20102;-66
2022/04/01 09:29:45;;;;;;;9.77;1.35;;;3.00;62.70;;;;;;4972309;28;20023;-66
2022/04/01 09:32:11;;;;;;;3.90;1.17;;;3.00;64.30;;;;;;4975284;28;20074;-67
2022/04/01 09:34:40;;;;;;;8.98;1.38;;;3.00;64.70;;;;;;4975037;28;20065;-67
2022/04/01 09:37:08;;;;;;;5.70;0.90;;;3.00;65.40;;;;;;4975010;28;20050;-70
2022/04/01 09:39:34;;;;;;;5.85;1.13;;;3.00;64.30;;;;;;4973682;28;20039;-70
2022/04/01 09:42:09;;;;;;;4.93;1.30;;;3.00;63.10;;;;;;4975247;28;20097;-69
2022/04/01 09:44:36;;;;;;;3.92;1.08;;;3.00;62.90;;;;;;4974809;28;20045;-69
2022/04/01 09:47:04;;;;;;;3.25;1.13;;;2.90;65.30;;;;;;4974853;28;20019;-68
2022/04/01 09:49:33;;;;;;;3.63;0.77;;;3.10;67.60;;;;;;4974603;28;20090;-68
2022/04/01 09:52:00;;;;;;;3.50;1.60;;;3.20;66.20;;;;;;4975899;28;20023;-68
2022/04/01 09:54:26;;;;;;;7.53;1.13;;;3.20;67.10;;;;;;4975004;28;20102;-67
2022/04/01 09:56:55;;;;;;;2.70;1.10;;;3.40;66.00;;;;;;4974615;28;20062;-67
2022/04/01 09:59:31;;;;;;;1.48;0.80;;;3.40;63.80;;;;;;4974559;28;20049;-66
2022/04/01 10:01:59;;;;;;;2.70;0.93;;;3.50;64.90;;;;;;4973779;28;20097;-66
2022/04/01 10:04:25;;;;;;;4.55;0.90;;;3.40;62.50;;;;;;4972317;28;20368;-66
2022/04/01 10:06:52;;;;;;;7.78;0.80;;;3.40;61.60;;;;;;4973823;28;20044;-66
2022/04/01 10:09:20;;;;;;;10.45;1.27;;;3.30;62.00;;;;;;4974198;28;20066;-68
2022/04/01 10:11:48;;;;;;;1.80;0.90;;;3.40;63.30;;;;;;4974243;28;20031;-64
2022/04/01 10:14:20;;;;;;;4.32;0.80;;;3.60;74.60;;;;;;4967203;28;20102;-66
2022/04/01 10:16:48;;;;;;;7.72;0.90;;;4.20;99.90;;;;;;4957906;28;20609;-67
2022/04/01 10:19:21;;;;;;;2.88;0.70;;;4.90;99.90;;;;;;4973246;28;20046;-68
2022/04/01 10:21:47;;;;;;;4.68;0.80;;;5.70;99.90;;;;;;4973496;28;20114;-66
2022/04/01 10:24:48;;;;;;;3.40;0.70;;;5.90;82.70;;;;;;4974012;28;20165;-67
2022/04/01 10:27:14;;;;;;;6.97;0.60;;;5.70;78.90;;;;;;4973990;28;20588;-66
2022/04/01 10:29:40;;;;;;;6.15;0.70;;;5.70;77.30;;;;;;4973837;28;20023;-66
2022/04/01 10:32:37;;;;;;;10.15;0.95;;;5.90;77.70;;;;;;4974208;28;20382;-67
2022/04/01 10:35:06;;;;;;;4.47;0.77;;;6.30;84.00;;;;;;4973210;28;20227;-67
2022/04/01 10:37:32;;;;;;;7.35;1.02;;;6.60;73.40;;;;;;4972873;28;20124;-67
2022/04/01 10:40:16;;;;;;;2.75;0.50;;;6.70;72.70;;;;;;4972999;28;20430;-67
2022/04/01 10:42:42;;;;;;;1.35;0.60;;;6.70;67.50;;;;;;4971481;28;20023;-67
2022/04/01 10:45:23;;;;;;;1.15;0.70;;;6.40;63.20;;;;;;4969970;28;20513;-67
2022/04/01 10:53:48;;;;;;;1.52;0.60;;;4.80;56.60;;;;;;4973324;28;20042;-67
2022/04/01 10:56:26;;;;;;;0.70;0.40;;;4.40;56.90;;;;;;4974109;28;20107;-67
2022/04/01 10:59:03;;;;;;;1.40;0.70;;;4.30;57.50;;;;;;4973741;28;20074;-68
2022/04/01 11:01:30;;;;;;;2.97;0.63;;;4.20;57.80;;;;;;4973832;28;20027;-68
2022/04/01 11:04:02;;;;;;;2.70;0.60;;;4.10;57.20;;;;;;4973797;28;20031;-68
2022/04/01 11:06:28;;;;;;;2.45;0.73;;;3.90;57.20;;;;;;4973650;28;20500;-68
2022/04/01 11:08:55;;;;;;;9.85;0.70;;;3.90;58.20;;;;;;4973777;28;20062;-68
2022/04/01 11:11:21;;;;;;;8.13;0.70;;;3.80;58.70;;;;;;4971820;28;20019;-68
2022/04/01 11:14:06;;;;;;;4.15;0.88;;;3.90;58.40;;;;;;4973178;28;20027;-68
2022/04/01 11:16:49;;;;;;;1.83;0.90;;;3.80;58.50;;;;;;4973177;28;20030;-67
2022/04/01 11:19:22;;;;;;;1.58;0.70;;;3.90;59.50;;;;;;4972930;28;20046;-68
2022/04/01 11:21:48;;;;;;;7.03;0.85;;;3.90;60.40;;;;;;4972905;28;20022;-67
2022/04/01 11:24:33;;;;;;;2.10;1.00;;;4.00;59.80;;;;;;4973171;28;20031;-68
2022/04/01 11:27:22;;;;;;;5.82;0.60;;;3.90;58.70;;;;;;4973544;28;20026;-68
2022/04/01 11:30:13;;;;;;;11.02;1.05;;;3.80;58.70;;;;;;4973048;28;20102;-69
2022/04/01 11:32:40;;;;;;;10.23;1.25;;;3.90;60.20;;;;;;4973147;28;20033;-68
2022/04/01 11:35:07;;;;;;;15.15;0.98;;;3.90;60.10;;;;;;4973012;28;20031;-68
2022/04/01 11:37:42;;;;;;;7.85;0.93;;;3.90;60.30;;;;;;4972461;28;20065;-67
2022/04/01 11:40:17;;;;;;;3.85;1.15;;;4.00;60.20;;;;;;4972707;28;20026;-69
2022/04/01 11:42:54;;;;;;;3.65;1.38;;;3.90;59.00;;;;;;4972334;28;20030;-71
2022/04/01 11:45:20;;;;;;;6.53;0.80;;;3.90;63.20;;;;;;4972458;28;20519;-70
2022/04/01 11:47:46;;;;;;;2.28;0.68;;;5.40;91.70;;;;;;4970256;28;20089;-69
2022/04/01 11:50:15;;;;;;;6.20;1.30;;;5.40;65.60;;;;;;4957121;28;20045;-69
2022/04/01 11:52:46;;;;;;;6.85;1.30;;;5.10;62.00;;;;;;4970030;28;20028;-69
2022/04/01 11:55:18;;;;;;;6.95;1.15;;;4.90;62.10;;;;;;4970988;28;20102;-69
2022/04/01 11:57:45;;;;;;;6.72;0.75;;;4.60;60.40;;;;;;4971940;28;20089;-69
2022/04/01 12:00:16;;;;;;;5.63;0.85;;;4.50;61.40;;;;;;4953017;28;20024;-69
2022/04/01 12:02:43;;;;;;;15.55;1.15;;;4.50;60.50;;;;;;4972014;28;20474;-69
2022/04/01 12:05:10;;;;;;;5.20;0.60;;;4.40;60.90;;;;;;4976644;28;20483;-70
2022/04/01 12:10:26;;;;;;;2.33;0.80;;;4.30;59.90;;;;;;4976819;28;20113;-69
2022/04/01 12:13:02;;;;;;;2.47;1.00;;;4.20;60.00;;;;;;4976653;28;20074;-68
2022/04/01 12:15:34;;;;;;;0.70;0.63;;;4.30;61.40;;;;;;4977921;28;20030;-70
2022/04/01 12:18:02;;;;;;;2.50;0.70;;;4.50;69.90;;;;;;4976031;28;20498;-69
2022/04/01 12:20:28;;;;;;;1.17;0.60;;;7.10;99.90;;;;;;4976382;28;20034;-69
2022/04/01 12:22:58;;;;;;;1.70;0.52;;;7.60;67.90;;;;;;4976252;28;20046;-68
2022/04/01 12:25:24;;;;;;;1.58;0.80;;;6.70;58.80;;;;;;4978118;28;20027;-68
2022/04/01 12:27:55;;;;;;;1.17;0.65;;;5.90;58.10;;;;;;4976111;28;20537;-68
2022/04/01 12:30:34;;;;;;;1.27;0.60;;;5.30;58.30;;;;;;4976140;28;20105;-68
2022/04/01 12:33:01;;;;;;;2.05;0.70;;;4.80;58.60;;;;;;4976022;28;20030;-68
2022/04/01 12:35:27;;;;;;;0.88;0.50;;;4.70;59.50;;;;;;4975983;28;20105;-69
2022/04/01 12:38:13;;;;;;;5.88;0.68;;;4.60;59.60;;;;;;4975591;28;20138;-68
2022/04/01 12:40:45;;;;;;;2.17;0.68;;;4.60;59.20;;;;;;4975485;28;20047;-68
2022/04/01 12:43:30;;;;;;;4.28;0.80;;;4.40;59.10;;;;;;4975938;28;20122;-67
2022/04/01 12:46:04;;;;;;;3.22;0.85;;;4.40;59.40;;;;;;4975872;28;20026;-68
2022/04/01 12:48:38;;;;;;;2.58;0.70;;;4.40;59.30;;;;;;4976118;28;20019;-69
2022/04/01 12:51:04;;;;;;;1.80;0.57;;;4.30;58.20;;;;;;4975880;28;20031;-69
2022/04/01 12:53:34;;;;;;;4.95;0.82;;;4.30;59.10;;;;;;4973809;28;20505;-69
2022/04/01 12:56:18;;;;;;;1.85;0.60;;;4.30;58.90;;;;;;4971192;28;20110;-69
2022/04/01 12:58:52;;;;;;;1.20;0.70;;;4.20;58.50;;;;;;4968101;28;20516;-68
2022/04/01 13:01:30;;;;;;;1.20;0.70;;;4.20;58.90;;;;;;4969970;28;20031;-68
2022/04/01 13:03:57;;;;;;;2.78;0.85;;;4.20;58.30;;;;;;4968714;28;20042;-68
2022/04/01 13:06:27;;;;;;;2.90;0.80;;;4.10;57.60;;;;;;4969763;28;20411;-69
2022/04/01 13:09:20;;;;;;;;;;;3.90;57.50;;;;;;4971702;28;20063;-69
2022/04/01 13:11:47;;;;;;;2.60;0.70;;;3.90;57.10;;;;;;4966914;28;19942;-69
2022/04/01 13:14:21;;;;;;;8.07;0.70;;;3.90;57.70;;;;;;4963465;28;20498;-69
2022/04/01 13:16:50;;;;;;;1.85;0.50;;;3.90;58.10;;;;;;4972489;28;20041;-69
2022/04/01 13:19:23;;;;;;;2.83;0.60;;;4.00;57.70;;;;;;4969584;28;20046;-69
2022/04/01 13:21:50;;;;;;;2.13;0.80;;;3.80;57.30;;;;;;4971968;28;20085;-68
2022/04/01 13:24:25;;;;;;;6.80;0.70;;;3.80;57.90;;;;;;4971955;28;20106;-68
2022/04/01 13:26:52;;;;;;;2.13;0.70;;;3.90;58.00;;;;;;4970592;28;20077;-69
2022/04/01 13:29:18;;;;;;;1.10;0.60;;;3.90;57.80;;;;;;4974458;28;20478;-69
2022/04/01 13:31:44;;;;;;;1.10;0.50;;;3.90;57.50;;;;;;4974493;28;20030;-69
2022/04/01 13:34:11;;;;;;;1.05;0.60;;;3.80;57.20;;;;;;4974609;28;20034;-69
2022/04/01 13:36:37;;;;;;;0.90;0.60;;;3.90;58.00;;;;;;4974577;28;20023;-69
2022/04/01 13:39:05;;;;;;;1.98;0.70;;;3.80;56.70;;;;;;4972038;28;20469;-69
2022/04/01 13:41:31;;;;;;;0.82;0.50;;;3.70;56.80;;;;;;4973415;28;20051;-70
2022/04/01 13:43:56;;;;;;;1.77;0.60;;;3.60;57.30;;;;;;4973555;28;20364;-67
2022/04/01 13:46:22;;;;;;;1.88;0.55;;;3.90;60.70;;;;;;4972877;28;20113;-67
2022/04/01 13:48:48;;;;;;;0.95;0.57;;;3.90;58.90;;;;;;4954143;28;20067;-67
2022/04/01 13:51:15;;;;;;;3.30;0.90;;;3.90;58.00;;;;;;4956318;28;20549;-67
2022/04/01 13:53:41;;;;;;;0.40;0.40;;;3.80;56.80;;;;;;4973131;28;20031;-69
2022/04/01 13:56:08;;;;;;;3.30;0.68;;;3.60;56.60;;;;;;4972957;28;20031;-68
2022/04/01 13:58:34;;;;;;;1.10;0.70;;;3.60;57.20;;;;;;4972924;28;20031;-67
2022/04/01 14:01:00;;;;;;;1.05;0.68;;;3.60;57.50;;;;;;4972636;28;20042;-67
2022/04/01 14:03:26;;;;;;;8.70;1.00;;;3.70;57.70;;;;;;4971648;28;20019;-67
2022/04/01 14:05:53;;;;;;;2.88;0.70;;;3.70;56.30;;;;;;4972049;28;20034;-69
2022/04/01 14:08:20;;;;;;;0.95;0.60;;;3.70;56.90;;;;;;4972213;28;20023;-69
2022/04/01 14:10:46;;;;;;;7.00;0.70;;;3.80;57.50;;;;;;4970294;28;20093;-69
2022/04/01 14:13:12;;;;;;;3.72;0.90;;;3.80;56.90;;;;;;4968623;28;20487;-68
2022/04/01 14:15:38;;;;;;;1.20;0.65;;;3.80;57.10;;;;;;4958803;28;20034;-69
2022/04/01 14:18:04;;;;;;;4.15;0.80;;;3.80;56.50;;;;;;4956581;28;20019;-69
2022/04/01 14:20:30;;;;;;;0.60;0.52;;;3.90;57.10;;;;;;4956327;28;20027;-69
2022/04/01 14:22:56;;;;;;;2.25;0.60;;;3.90;56.50;;;;;;4968964;28;20386;-68